Time;durP1;ratioP1;P1;durP2;ratioP2;P2;SDS_P1;SDS_P2;PMS_P1;PMS_P2;Temp;Humidity;BMP_temperature;BMP_pressure;BME280_temperature;BME280_humidity;BME280_pressure;Samples;Min_cycle;Max_cycle;Signal;HPM_P1;HPM_P2
2022/06/10 00:00:02;;;;;;;14.02;2.08;;;;;;;13.62;84.16;102074.00;5053391;28;20389;-75
2022/06/10 00:02:28;;;;;;;14.98;2.30;;;;;;;13.63;84.03;102077.53;5053859;28;20032;-76
2022/06/10 00:04:53;;;;;;;14.80;2.22;;;;;;;13.64;84.24;102076.56;5053577;28;20484;-75
2022/06/10 00:07:19;;;;;;;21.02;2.78;;;;;;;13.64;84.21;102071.19;5053849;28;20420;-75
2022/06/10 00:09:44;;;;;;;9.73;2.63;;;;;;;13.63;84.37;102072.16;5052121;28;20556;-75
2022/06/10 00:12:09;;;;;;;10.60;2.03;;;;;;;13.61;84.64;102069.63;5053261;28;20438;-76
2022/06/10 00:14:35;;;;;;;19.20;3.70;;;;;;;13.61;84.84;102064.28;5053366;28;20029;-75
2022/06/10 00:17:01;;;;;;;18.08;3.70;;;;;;;13.64;84.54;102071.19;5053151;28;20053;-75
2022/06/10 00:19:27;;;;;;;16.85;2.40;;;;;;;13.66;84.17;102070.09;5053412;28;20036;-75
2022/06/10 00:21:52;;;;;;;14.95;2.85;;;;;;;13.71;84.13;102067.03;5053116;28;20045;-75
2022/06/10 00:24:17;;;;;;;10.73;2.83;;;;;;;13.74;84.41;102066.78;5051746;28;20033;-75
2022/06/10 00:26:43;;;;;;;10.23;2.08;;;;;;;13.76;84.54;102059.47;5053158;28;20057;-75
2022/06/10 00:29:08;;;;;;;9.82;2.85;;;;;;;13.80;83.99;102060.06;5051742;28;20037;-76
2022/06/10 00:31:33;;;;;;;17.33;2.65;;;;;;;13.83;83.94;102059.81;5052449;28;20084;-76
2022/06/10 00:33:59;;;;;;;11.30;2.13;;;;;;;13.89;83.98;102059.28;5052783;28;20119;-75
2022/06/10 00:36:24;;;;;;;10.02;2.13;;;;;;;13.96;83.86;102059.59;5052865;28;20096;-76
2022/06/10 00:38:49;;;;;;;11.23;2.42;;;;;;;14.00;83.52;102061.88;5050941;28;20115;-76
2022/06/10 00:41:15;;;;;;;17.67;2.63;;;;;;;14.02;83.57;102059.91;5052898;28;20033;-76
2022/06/10 00:43:41;;;;;;;9.45;2.63;;;;;;;14.09;83.36;102058.41;5052441;28;20123;-76
2022/06/10 00:46:27;;;;;;;10.80;2.13;;;;;;;14.14;83.47;102062.50;5052697;28;20053;-76
2022/06/10 00:49:05;;;;;;;15.88;3.00;;;;;;;14.16;82.84;102069.44;5052867;28;20083;-75
2022/06/10 00:51:48;;;;;;;10.48;2.65;;;;;;;14.17;83.34;102065.78;5052851;28;20114;-76
2022/06/10 00:54:21;;;;;;;12.80;2.33;;;;;;;14.18;83.60;102074.66;5052204;28;20025;-75
2022/06/10 00:56:52;;;;;;;13.93;2.83;;;;;;;14.17;83.39;102070.28;5052944;28;20025;-74
2022/06/10 00:59:29;;;;;;;8.50;2.75;;;;;;;14.19;83.34;102073.66;5052978;28;20051;-75
2022/06/10 01:01:59;;;;;;;12.68;2.42;;;;;;;14.19;83.22;102074.50;5052387;28;20059;-74
2022/06/10 01:04:26;;;;;;;11.20;2.17;;;;;;;14.20;83.84;102078.91;5052579;28;20051;-75
2022/06/10 01:06:52;;;;;;;19.30;2.67;;;;;;;14.23;83.29;102075.13;5052195;28;20112;-75
2022/06/10 01:09:18;;;;;;;12.20;2.42;;;;;;;14.26;83.27;102070.31;5052285;28;20071;-76
2022/06/10 01:12:17;;;;;;;13.13;2.38;;;;;;;14.28;83.13;102068.34;5052069;28;20025;-75
2022/06/10 01:14:51;;;;;;;11.98;1.98;;;;;;;14.29;83.38;102069.22;5051813;28;20458;-75
2022/06/10 01:17:44;;;;;;;9.10;2.22;;;;;;;14.33;83.05;102069.78;5052396;28;20044;-74
2022/06/10 01:20:31;;;;;;;12.45;1.95;;;;;;;14.36;83.24;102069.53;5052567;28;20173;-75
2022/06/10 01:23:38;;;;;;;16.55;2.85;;;;;;;14.38;83.57;102078.28;5052241;28;20029;-75
2022/06/10 01:30:05;;;;;;;14.55;2.47;;;;;;;14.42;83.01;102074.34;5045794;28;20132;-79
2022/06/10 01:32:57;;;;;;;;;;;;;;;14.45;83.32;102076.75;5051366;28;20033;-75
2022/06/10 01:35:31;;;;;;;;;;;;;;;14.45;83.53;102074.06;5051569;28;19923;-75
2022/06/10 01:38:15;;;;;;;9.32;2.25;;;;;;;14.45;82.75;102069.56;5051865;28;20070;-75
2022/06/10 01:41:01;;;;;;;7.80;2.28;;;;;;;14.49;83.00;102071.97;5051997;28;20024;-76
2022/06/10 01:43:52;;;;;;;10.20;2.65;;;;;;;14.48;83.52;102079.19;5047312;28;20033;-74
2022/06/10 01:46:28;;;;;;;10.95;1.95;;;;;;;14.49;83.96;102085.38;5051613;28;20511;-75
2022/06/10 01:49:00;;;;;;;10.15;2.38;;;;;;;14.46;85.36;102081.13;5051900;28;20480;-75
2022/06/10 01:52:04;;;;;;;7.80;2.08;;;;;;;14.39;88.42;102082.63;5051856;28;20052;-75
2022/06/10 01:54:38;;;;;;;10.00;2.72;;;;;;;14.24;91.09;102079.47;5051633;28;20079;-76
2022/06/10 01:57:09;;;;;;;11.38;2.45;;;;;;;14.10;92.55;102078.00;5052310;28;20124;-75
2022/06/10 01:59:48;;;;;;;12.23;2.30;;;;;;;14.00;93.97;102075.28;5052156;28;20106;-75
2022/06/10 02:02:23;;;;;;;13.70;2.47;;;;;;;13.96;94.99;102076.50;5052114;28;20032;-75
2022/06/10 02:04:53;;;;;;;12.25;2.60;;;;;;;13.91;94.76;102081.38;5052274;28;20287;-75
2022/06/10 02:07:30;;;;;;;9.00;2.35;;;;;;;13.89;95.29;102072.66;5051904;28;20036;-75
2022/06/10 02:10:13;;;;;;;14.10;2.47;;;;;;;13.89;95.71;102072.66;5051464;28;20465;-75
2022/06/10 02:12:47;;;;;;;7.82;1.90;;;;;;;13.88;96.44;102066.47;5051530;28;20076;-75
2022/06/10 02:15:24;;;;;;;15.93;2.67;;;;;;;13.88;96.24;102063.78;5051541;28;20029;-75
2022/06/10 02:17:57;;;;;;;12.68;2.47;;;;;;;13.90;96.42;102064.50;5051510;28;20107;-76
2022/06/10 02:20:27;;;;;;;11.35;1.95;;;;;;;13.90;95.39;102069.84;5051401;28;20044;-75
2022/06/10 02:22:57;;;;;;;9.95;2.35;;;;;;;13.93;95.12;102069.59;5051359;28;20028;-76
2022/06/10 02:25:31;;;;;;;12.50;2.25;;;;;;;13.96;95.29;102068.47;5050287;28;20445;-74
2022/06/10 02:28:04;;;;;;;13.07;2.42;;;;;;;14.01;93.17;102074.28;5051247;28;20029;-75
2022/06/10 02:30:38;;;;;;;9.23;1.98;;;;;;;14.05;92.83;102072.19;5051462;28;20036;-75
2022/06/10 02:33:04;;;;;;;10.77;2.10;;;;;;;14.10;91.62;102070.78;5051587;28;20090;-75
2022/06/10 02:35:47;;;;;;;16.20;2.05;;;;;;;14.17;90.90;102067.63;5051603;28;20037;-75
2022/06/10 02:38:45;;;;;;;13.65;2.58;;;;;;;14.23;89.89;102075.13;5051745;28;20045;-75
2022/06/10 02:41:31;;;;;;;10.88;2.08;;;;;;;14.27;89.60;102080.06;5046584;28;20080;-75
2022/06/10 02:44:35;;;;;;;8.45;1.98;;;;;;;14.31;89.14;102085.97;5051838;28;20031;-74
2022/06/10 02:47:18;;;;;;;13.88;2.55;;;;;;;14.33;90.32;102084.03;5050742;28;20472;-76
2022/06/10 02:49:44;;;;;;;14.85;2.42;;;;;;;14.29;91.95;102091.47;5054877;28;20621;-74
2022/06/10 02:52:13;;;;;;;15.07;2.42;;;;;;;14.25;93.18;102087.34;5054547;28;20053;-75
2022/06/10 02:54:40;;;;;;;10.02;2.13;;;;;;;14.22;94.65;102094.81;5055044;28;20162;-75
2022/06/10 02:57:16;;;;;;;12.32;1.92;;;;;;;14.17;95.14;102084.50;5054560;28;20086;-75
2022/06/10 03:02:47;;;;;;;9.73;2.03;;;;;;;14.11;95.19;102085.88;5055248;28;20476;-75
2022/06/10 03:05:20;;;;;;;9.80;2.40;;;;;;;14.10;95.38;102086.84;5055214;28;20025;-77
2022/06/10 03:08:18;;;;;;;13.32;2.75;;;;;;;14.11;96.06;102095.75;5055125;28;20040;-75
2022/06/10 03:11:06;;;;;;;10.02;1.90;;;;;;;14.10;95.75;102100.22;5054858;28;20108;-75
2022/06/10 03:14:01;;;;;;;11.07;2.65;;;;;;;14.10;96.63;102097.56;5052769;28;20040;-75
2022/06/10 03:16:36;;;;;;;17.80;2.72;;;;;;;13.99;99.08;102100.31;5054120;28;20028;-73
2022/06/10 03:19:41;;;;;;;12.40;2.50;;;;;;;13.80;100.00;102098.34;5054439;28;20025;-74
2022/06/10 03:22:38;;;;;;;9.45;2.28;;;;;;;13.60;100.00;102108.06;5032985;28;20048;-73
2022/06/10 03:25:09;;;;;;;14.13;2.80;;;;;;;13.47;100.00;102104.72;5053464;28;20416;-74
2022/06/10 03:28:04;;;;;;;14.60;2.47;;;;;;;13.36;100.00;102106.44;5054573;28;20091;-73
2022/06/10 03:30:35;;;;;;;9.32;2.90;;;;;;;13.30;100.00;102103.38;5054434;28;20078;-74
2022/06/10 03:33:25;;;;;;;11.00;3.22;;;;;;;13.25;100.00;102095.75;5054416;28;20021;-73
2022/06/10 03:35:56;;;;;;;9.48;3.28;;;;;;;13.18;100.00;102097.22;5052362;28;20112;-74
2022/06/10 03:38:22;;;;;;;16.20;3.20;;;;;;;13.15;100.00;102094.78;5054220;28;20033;-74
2022/06/10 03:40:57;;;;;;;7.47;2.92;;;;;;;13.11;100.00;102096.03;5054271;28;20388;-74
2022/06/10 03:43:24;;;;;;;11.98;3.40;;;;;;;13.13;100.00;102099.44;5054197;28;20051;-74
2022/06/10 03:45:59;;;;;;;15.65;3.53;;;;;;;13.12;100.00;102100.41;5054089;28;20104;-74
2022/06/10 03:48:27;;;;;;;10.43;3.35;;;;;;;13.14;100.00;102101.97;5054507;28;20043;-74
2022/06/10 03:50:53;;;;;;;13.48;3.42;;;;;;;13.17;100.00;102100.88;5052041;28;20079;-74
2022/06/10 03:53:22;;;;;;;12.30;3.55;;;;;;;13.17;100.00;102109.75;5053572;28;20520;-74
2022/06/10 03:55:47;;;;;;;12.18;3.42;;;;;;;13.15;100.00;102110.81;5054390;28;20382;-74
2022/06/10 03:58:13;;;;;;;18.17;3.50;;;;;;;13.17;100.00;102107.06;5053455;28;20110;-74
2022/06/10 04:00:39;;;;;;;11.18;3.35;;;;;;;13.16;100.00;102102.69;5053228;28;20425;-73
2022/06/10 04:03:05;;;;;;;11.88;3.20;;;;;;;13.18;100.00;102106.09;5053440;28;20614;-74
2022/06/10 04:05:30;;;;;;;14.50;3.08;;;;;;;13.16;100.00;102093.81;5053445;28;20037;-73
2022/06/10 04:07:56;;;;;;;15.80;3.13;;;;;;;13.17;100.00;102099.06;5053557;28;20317;-73
2022/06/10 04:10:25;;;;;;;12.82;3.00;;;;;;;13.18;100.00;102100.75;5052932;28;20076;-73
2022/06/10 04:12:50;;;;;;;12.93;3.15;;;;;;;13.21;100.00;102096.97;5053347;28;20025;-73
2022/06/10 04:15:16;;;;;;;16.58;3.58;;;;;;;13.24;100.00;102096.72;5053457;28;20033;-74
2022/06/10 04:17:48;;;;;;;12.02;2.90;;;;;;;13.22;100.00;102088.81;5052251;28;20469;-74
2022/06/10 04:20:18;;;;;;;12.35;3.40;;;;;;;13.26;100.00;102091.25;5053218;28;20040;-74
2022/06/10 04:22:43;;;;;;;14.27;3.40;;;;;;;13.33;100.00;102105.81;5053151;28;20029;-74
2022/06/10 04:25:09;;;;;;;12.55;3.38;;;;;;;13.34;100.00;102100.34;5051519;28;20039;-75
2022/06/10 04:27:35;;;;;;;13.50;3.17;;;;;;;13.37;100.00;102105.44;5053235;28;20044;-73
2022/06/10 04:30:01;;;;;;;11.50;2.90;;;;;;;13.42;100.00;102104.22;5053017;28;20037;-74
2022/06/10 04:32:26;;;;;;;14.65;3.10;;;;;;;13.47;100.00;102110.91;5052446;28;20033;-73
2022/06/10 04:34:51;;;;;;;16.63;3.80;;;;;;;13.52;100.00;102107.84;5053950;28;20033;-71
2022/06/10 04:37:17;;;;;;;17.15;3.42;;;;;;;13.56;100.00;102104.78;5053175;28;20036;-71
2022/06/10 04:39:42;;;;;;;11.50;3.05;;;;;;;13.63;100.00;102110.47;5055455;28;20036;-72
2022/06/10 04:42:08;;;;;;;14.07;3.20;;;;;;;13.69;100.00;102118.00;5054884;28;20029;-71
2022/06/10 04:44:33;;;;;;;13.07;3.13;;;;;;;13.72;100.00;102111.53;5055394;28;20037;-71
2022/06/10 04:46:59;;;;;;;10.43;3.22;;;;;;;13.74;100.00;102115.75;5055080;28;20029;-72
2022/06/10 04:49:25;;;;;;;15.18;2.90;;;;;;;13.79;100.00;102114.53;5054415;28;20090;-72
2022/06/10 04:51:50;;;;;;;13.23;3.05;;;;;;;13.79;100.00;102112.69;5055332;28;20057;-71
2022/06/10 04:54:16;;;;;;;10.85;2.95;;;;;;;13.81;100.00;102110.75;5053475;28;20028;-72
2022/06/10 04:56:41;;;;;;;11.85;3.67;;;;;;;13.84;100.00;102112.31;5070028;28;20067;-71
2022/06/10 04:59:06;;;;;;;16.55;3.20;;;;;;;13.84;100.00;102105.16;5054033;28;20029;-77
2022/06/10 05:01:32;;;;;;;13.13;2.90;;;;;;;13.87;100.00;102104.88;5052612;28;20051;-71
2022/06/10 05:03:57;;;;;;;15.23;3.53;;;;;;;13.89;100.00;102110.94;5053878;28;20450;-72
2022/06/10 05:06:23;;;;;;;12.32;3.90;;;;;;;13.94;100.00;102105.19;5053959;28;20032;-72
2022/06/10 05:08:48;;;;;;;9.95;2.75;;;;;;;14.00;100.00;102114.53;5053891;28;20072;-71
2022/06/10 05:11:14;;;;;;;13.77;3.63;;;;;;;14.04;100.00;102105.28;5052840;28;20390;-72
2022/06/10 05:13:39;;;;;;;10.27;3.00;;;;;;;14.08;100.00;102096.00;5053862;28;20040;-72
2022/06/10 05:16:05;;;;;;;13.73;3.35;;;;;;;14.15;100.00;102107.03;5053692;28;20032;-72
2022/06/10 05:18:31;;;;;;;12.73;3.17;;;;;;;14.15;100.00;102107.03;5053606;28;20083;-72
2022/06/10 05:20:57;;;;;;;11.57;2.88;;;;;;;14.20;100.00;102099.47;5054176;28;20036;-71
2022/06/10 05:23:24;;;;;;;13.55;3.28;;;;;;;14.26;100.00;102115.00;5053155;28;20450;-72
2022/06/10 05:25:50;;;;;;;10.48;3.22;;;;;;;14.32;100.00;102108.28;5053654;28;20029;-72
2022/06/10 05:28:17;;;;;;;12.13;3.28;;;;;;;14.35;100.00;102108.00;5054453;28;20147;-72
2022/06/10 05:30:43;;;;;;;16.42;3.10;;;;;;;14.36;100.00;102107.00;5054019;28;20123;-72
2022/06/10 05:33:10;;;;;;;14.05;3.58;;;;;;;14.38;100.00;102110.41;5054114;28;20110;-71
2022/06/10 05:35:36;;;;;;;20.45;3.05;;;;;;;14.38;100.00;102107.72;5054694;28;20033;-72
2022/06/10 05:38:03;;;;;;;12.75;2.80;;;;;;;14.40;100.00;102109.28;5053880;28;20041;-72
2022/06/10 05:40:30;;;;;;;9.73;2.60;;;;;;;14.42;100.00;102107.34;5053365;28;20035;-71
2022/06/10 05:42:57;;;;;;;9.77;2.30;;;;;;;14.44;100.00;102116.06;5053529;28;20396;-72
2022/06/10 05:45:23;;;;;;;15.23;3.08;;;;;;;14.45;100.00;102115.09;5053389;28;20033;-71
2022/06/10 05:47:52;;;;;;;14.02;2.85;;;;;;;14.51;100.00;102116.41;5053385;28;20037;-72
2022/06/10 05:50:20;;;;;;;18.55;3.28;;;;;;;14.54;100.00;102117.94;5051876;28;20040;-71
2022/06/10 05:52:46;;;;;;;16.00;3.25;;;;;;;14.57;100.00;102123.03;5054661;28;20102;-69
2022/06/10 05:55:11;;;;;;;15.70;3.70;;;;;;;14.61;100.00;102122.69;5052206;28;20029;-71
2022/06/10 05:57:39;;;;;;;13.57;3.05;;;;;;;14.68;100.00;102119.47;5051808;28;20036;-72
2022/06/10 06:00:08;;;;;;;10.65;2.67;;;;;;;14.77;100.00;102119.47;5053141;28;20473;-71
2022/06/10 06:02:33;;;;;;;9.40;2.83;;;;;;;14.85;100.00;102118.78;5053041;28;20116;-70
2022/06/10 06:04:59;;;;;;;14.93;2.78;;;;;;;14.93;100.00;102121.66;5053236;28;20433;-71
2022/06/10 06:07:27;;;;;;;12.68;2.70;;;;;;;14.99;100.00;102126.47;5051870;28;20045;-71
2022/06/10 06:09:53;;;;;;;10.18;2.38;;;;;;;15.05;99.68;102127.75;5053358;28;20136;-71
2022/06/10 06:12:19;;;;;;;13.40;3.30;;;;;;;15.18;98.59;102135.53;5052861;28;20091;-71
2022/06/10 06:14:45;;;;;;;19.38;3.50;;;;;;;15.23;97.81;102133.28;5035518;28;20156;-71
2022/06/10 06:17:12;;;;;;;12.73;2.80;;;;;;;15.29;97.54;102132.75;5053128;28;20064;-71
2022/06/10 06:19:38;;;;;;;10.93;2.72;;;;;;;15.37;96.43;102133.88;5053318;28;20029;-72
2022/06/10 06:22:04;;;;;;;8.93;2.10;;;;;;;15.40;95.43;102137.13;5036056;28;20041;-72
2022/06/10 06:24:29;;;;;;;9.98;2.53;;;;;;;15.56;96.37;102147.31;5055888;28;20119;-71
2022/06/10 06:26:55;;;;;;;9.88;2.35;;;;;;;15.70;97.56;102138.00;5055824;28;20037;-72
2022/06/10 06:29:23;;;;;;;12.65;2.75;;;;;;;15.77;95.08;102136.44;5057020;28;20036;-71
2022/06/10 06:31:50;;;;;;;14.13;2.50;;;;;;;15.89;94.80;102152.44;5057130;28;20040;-71
2022/06/10 06:34:16;;;;;;;8.93;2.20;;;;;;;15.95;94.38;102155.38;5056630;28;20037;-71
2022/06/10 06:36:45;;;;;;;10.55;2.42;;;;;;;15.87;95.19;102160.63;5055069;28;20040;-72
2022/06/10 06:39:12;;;;;;;14.10;2.58;;;;;;;15.81;94.96;102154.00;5056401;28;20025;-72
2022/06/10 06:41:38;;;;;;;17.08;3.67;;;;;;;15.82;98.45;102152.16;5056582;28;20033;-72
2022/06/10 06:44:05;;;;;;;10.88;2.88;;;;;;;15.85;100.00;102155.41;5056575;28;20439;-72
2022/06/10 06:46:33;;;;;;;14.13;2.80;;;;;;;15.94;99.21;102147.47;5056610;28;20527;-71
2022/06/10 06:48:59;;;;;;;8.93;2.75;;;;;;;16.14;99.63;102146.47;5056094;28;20040;-71
2022/06/10 06:51:24;;;;;;;13.35;2.97;;;;;;;16.37;98.27;102152.34;5054787;28;20374;-73
2022/06/10 06:53:50;;;;;;;13.45;2.35;;;;;;;16.49;94.88;102144.97;5056332;28;20037;-72
2022/06/10 06:56:15;;;;;;;12.25;2.90;;;;;;;16.66;94.25;102145.19;5056430;28;20330;-71
2022/06/10 06:58:41;;;;;;;11.98;2.33;;;;;;;16.74;92.71;102146.13;5056284;28;20068;-71
2022/06/10 07:01:06;;;;;;;14.32;3.15;;;;;;;16.76;91.43;102146.00;5054964;28;20449;-72
2022/06/10 07:03:32;;;;;;;8.40;2.42;;;;;;;16.79;89.78;102145.69;5056158;28;20090;-71
2022/06/10 07:05:57;;;;;;;17.67;2.55;;;;;;;17.01;87.89;102154.41;5056426;28;20456;-72
2022/06/10 07:08:30;;;;;;;11.25;2.33;;;;;;;17.13;85.68;102158.59;5056112;28;20025;-71
2022/06/10 07:11:00;;;;;;;12.50;2.50;;;;;;;17.12;84.46;102148.81;5056157;28;20095;-72
2022/06/10 07:13:25;;;;;;;11.43;2.83;;;;;;;17.27;84.98;102160.78;5054408;28;20044;-73
2022/06/10 07:15:52;;;;;;;8.30;2.20;;;;;;;17.42;83.40;102154.84;5056870;28;20033;-71
2022/06/10 07:18:17;;;;;;;13.10;2.95;;;;;;;17.49;83.60;102155.94;5056550;28;20075;-71
2022/06/10 07:20:44;;;;;;;13.07;2.78;;;;;;;17.50;83.03;102160.34;5056147;28;20037;-72
2022/06/10 07:23:09;;;;;;;11.25;2.70;;;;;;;17.45;82.13;102152.72;5038544;28;20029;-71
2022/06/10 07:25:35;;;;;;;10.38;2.30;;;;;;;17.28;82.17;102151.69;5055886;28;20422;-71
2022/06/10 07:28:00;;;;;;;11.95;3.35;;;;;;;17.30;84.22;102156.06;5055790;28;20040;-71
2022/06/10 07:30:29;;;;;;;10.25;2.78;;;;;;;17.44;84.32;102161.78;5055755;28;20037;-71
2022/06/10 07:32:54;;;;;;;15.02;2.92;;;;;;;17.64;81.82;102156.25;5055408;28;20484;-72
2022/06/10 07:35:21;;;;;;;10.00;2.20;;;;;;;18.01;82.86;102151.75;5054763;28;20039;-71
2022/06/10 07:37:48;;;;;;;13.65;2.17;;;;;;;18.48;79.55;102160.31;5055235;28;20118;-71
2022/06/10 07:43:07;;;;;;;12.38;2.63;;;;;;;18.94;77.32;102164.59;5055238;28;20047;-70
2022/06/10 07:45:32;;;;;;;8.60;2.47;;;;;;;18.94;76.44;102168.13;5055383;28;20041;-71
2022/06/10 07:47:58;;;;;;;9.85;2.97;;;;;;;18.90;74.96;102158.69;5054121;28;20370;-70
2022/06/10 07:50:23;;;;;;;11.43;2.60;;;;;;;18.79;74.23;102159.78;5055335;28;20029;-71
2022/06/10 07:52:50;;;;;;;10.52;2.13;;;;;;;18.77;76.99;102161.81;5056236;28;20049;-71
2022/06/10 07:55:19;;;;;;;10.10;2.90;;;;;;;18.75;77.39;102169.22;5055207;28;20062;-70
2022/06/10 07:57:45;;;;;;;13.85;2.67;;;;;;;18.86;75.01;102160.03;5055139;28;20112;-71
2022/06/10 08:00:13;;;;;;;13.25;2.60;;;;;;;18.94;73.13;102164.59;5054911;28;20132;-72
2022/06/10 08:02:39;;;;;;;10.65;2.65;;;;;;;18.84;75.10;102157.47;5054868;28;20057;-70
2022/06/10 08:05:06;;;;;;;10.45;2.35;;;;;;;18.76;73.89;102160.09;5054993;28;20041;-70
2022/06/10 08:07:32;;;;;;;12.50;3.25;;;;;;;18.68;76.74;102166.31;5054832;28;20062;-75
2022/06/10 08:09:57;;;;;;;8.48;2.42;;;;;;;18.58;75.40;102165.56;5053683;28;20040;-70
2022/06/10 08:12:22;;;;;;;10.02;2.78;;;;;;;18.36;76.62;102160.72;5055053;28;20039;-73
2022/06/10 08:14:48;;;;;;;12.02;2.33;;;;;;;18.24;75.89;102174.47;5054748;28;20507;-70
2022/06/10 08:17:14;;;;;;;12.10;2.92;;;;;;;18.06;75.84;102161.00;5055093;28;20146;-72
2022/06/10 08:19:39;;;;;;;10.95;2.97;;;;;;;17.97;77.68;102178.97;5054166;28;20438;-71
2022/06/10 08:24:50;;;;;;;10.18;2.65;;;;;;;18.04;79.49;102170.28;5055055;28;20067;-71
2022/06/10 08:27:15;;;;;;;7.65;3.20;;;;;;;18.11;78.13;102165.97;5054754;28;20060;-72
2022/06/10 08:29:41;;;;;;;13.40;2.72;;;;;;;18.30;77.56;102170.28;5055024;28;20445;-71
2022/06/10 08:32:07;;;;;;;8.77;2.60;;;;;;;18.41;77.40;102169.19;5054504;28;20032;-71
2022/06/10 08:34:32;;;;;;;8.75;2.90;;;;;;;18.62;75.42;102172.34;5054515;28;20405;-70
2022/06/10 08:37:01;;;;;;;6.30;2.42;;;;;;;19.03;75.62;102164.50;5054392;28;20033;-71
2022/06/10 08:39:27;;;;;;;9.20;2.88;;;;;;;19.28;74.48;102159.16;5054722;28;20053;-71
2022/06/10 08:42:11;;;;;;;12.15;2.63;;;;;;;19.78;73.72;102160.13;5054427;28;20477;-72
2022/06/10 08:44:36;;;;;;;12.93;2.58;;;;;;;20.26;70.46;102152.16;5054213;28;20068;-75
2022/06/10 08:47:20;;;;;;;19.63;2.60;;;;;;;20.73;68.82;102150.53;5054569;28;20083;-72
2022/06/10 08:50:06;;;;;;;13.63;2.95;;;;;;;21.14;66.65;102156.59;5053479;28;20473;-73
2022/06/10 08:53:01;;;;;;;10.68;2.75;;;;;;;21.51;66.00;102153.38;5053208;28;20159;-72
2022/06/10 08:55:32;;;;;;;10.68;2.72;;;;;;;21.62;64.89;102151.09;5053303;28;20476;-71
2022/06/10 08:58:03;;;;;;;10.23;2.50;;;;;;;21.30;63.19;102165.63;5054013;28;20120;-71
2022/06/10 09:00:33;;;;;;;10.27;2.50;;;;;;;21.30;64.62;102168.34;5053233;28;20036;-72
2022/06/10 09:03:29;;;;;;;12.63;2.90;;;;;;;21.41;64.96;102164.41;5053598;28;20361;-71
2022/06/10 09:05:59;;;;;;;11.02;2.60;;;;;;;22.08;61.44;102161.03;5053805;28;20033;-71
2022/06/10 09:08:43;;;;;;;9.90;2.78;;;;;;;22.79;57.69;102157.94;5055280;28;20105;-71
2022/06/10 09:11:16;;;;;;;7.10;2.10;;;;;;;22.59;58.48;102163.09;5055375;28;20029;-71
2022/06/10 09:13:59;;;;;;;10.57;2.55;;;;;;;22.58;60.18;102161.41;5055158;28;20108;-71
2022/06/10 09:16:38;;;;;;;8.75;2.55;;;;;;;23.68;56.29;102167.75;5055264;28;20036;-72
2022/06/10 09:19:09;;;;;;;9.48;2.35;;;;;;;24.25;52.29;102165.13;5054790;28;20028;-71
2022/06/10 09:21:53;;;;;;;4.93;2.00;;;;;;;23.59;51.71;102158.88;5054568;28;20083;-71
2022/06/10 09:24:37;;;;;;;7.25;1.73;;;;;;;23.14;53.51;102158.19;5054427;28;20028;-71
2022/06/10 09:27:09;;;;;;;4.60;1.65;;;;;;;23.10;51.16;102158.78;5053915;28;20092;-71
2022/06/10 09:29:38;;;;;;;10.48;2.10;;;;;;;23.39;53.79;102163.25;5052450;28;20025;-70
2022/06/10 09:32:04;;;;;;;6.68;2.03;;;;;;;24.15;53.25;102165.44;5053397;28;20381;-70
2022/06/10 09:34:57;;;;;;;6.43;2.20;;;;;;;25.34;50.17;102158.97;5052287;28;20029;-71
2022/06/10 09:37:31;;;;;;;6.43;2.20;;;;;;;26.14;46.63;102162.84;5053472;28;20370;-70
2022/06/10 09:43:12;;;;;;;7.30;2.00;;;;;;;23.47;50.54;102156.84;5053659;28;20091;-70
2022/06/10 09:46:00;;;;;;;8.57;1.90;;;;;;;23.92;50.85;102166.53;5053425;28;20453;-70
2022/06/10 09:48:37;;;;;;;4.70;1.40;;;;;;;24.27;48.10;102160.31;5050187;28;20090;-70
2022/06/10 09:51:18;;;;;;;6.35;1.70;;;;;;;24.16;48.24;102167.13;5052992;28;20057;-70
2022/06/10 09:54:07;;;;;;;9.18;1.73;;;;;;;23.73;49.84;102164.44;5052996;28;20028;-69
2022/06/10 09:56:38;;;;;;;5.70;2.00;;;;;;;24.00;50.84;102160.09;5054392;28;20067;-69
2022/06/10 09:59:21;;;;;;;;;;;;;;;24.47;48.62;102165.88;5060748;28;20033;-70
2022/06/10 10:02:10;;;;;;;7.28;2.00;;;;;;;25.49;47.77;102166.16;5061184;28;19958;-70
2022/06/10 10:04:44;;;;;;;6.18;1.80;;;;;;;25.14;46.38;102169.81;5060194;28;20029;-70
2022/06/10 10:07:18;;;;;;;6.93;1.90;;;;;;;23.97;44.95;102186.84;5060094;28;20067;-70
2022/06/10 10:10:09;;;;;;;6.13;2.13;;;;;;;23.33;46.74;102185.75;5059620;28;20057;-70
2022/06/10 10:12:46;;;;;;;9.40;2.70;;;;;;;22.12;51.41;102189.44;5059839;28;20083;-70
2022/06/10 10:15:24;;;;;;;9.23;2.15;;;;;;;21.82;52.58;102199.34;5059722;28;20028;-70
2022/06/10 10:18:16;;;;;;;7.85;2.70;;;;;;;23.51;50.28;102188.03;5059068;28;20519;-70
2022/06/10 10:20:56;;;;;;;5.07;2.00;;;;;;;24.60;45.96;102182.31;5059965;28;20029;-70
2022/06/10 10:23:31;;;;;;;8.18;2.65;;;;;;;24.74;42.78;102190.56;5060008;28;20036;-70
2022/06/10 10:25:57;;;;;;;7.25;2.45;;;;;;;23.48;45.50;102185.72;5059109;28;20056;-70
2022/06/10 10:28:28;;;;;;;10.10;2.80;;;;;;;23.07;48.15;102185.22;5058675;28;20103;-69
2022/06/10 10:30:59;;;;;;;7.60;2.10;;;;;;;23.09;48.99;102182.31;5058432;28;20425;-71
2022/06/10 10:33:25;;;;;;;9.90;2.40;;;;;;;23.27;48.82;102176.50;5059603;28;20055;-70
2022/06/10 10:35:54;;;;;;;12.07;2.25;;;;;;;23.48;48.19;102191.13;5059995;28;20453;-70
2022/06/10 10:38:44;;;;;;;6.68;2.45;;;;;;;23.50;47.60;102197.25;5058574;28;20029;-70
2022/06/10 10:41:30;;;;;;;10.07;2.28;;;;;;;25.04;45.57;102190.28;5059272;28;20394;-70
2022/06/10 10:44:00;;;;;;;4.80;1.75;;;;;;;26.07;42.84;102187.41;5059980;28;20032;-71
2022/06/10 10:46:37;;;;;;;7.47;2.13;;;;;;;26.80;40.42;102196.53;5060142;28;20025;-70
2022/06/10 10:49:16;;;;;;;6.90;2.58;;;;;;;26.90;38.67;102191.44;5058126;28;20263;-70
2022/06/10 10:51:42;;;;;;;9.98;2.17;;;;;;;27.19;38.09;102181.88;5059532;28;20057;-70
2022/06/10 10:54:19;;;;;;;8.27;2.30;;;;;;;28.03;35.68;102187.25;5059745;28;20080;-70
2022/06/10 10:56:47;;;;;;;6.47;2.10;;;;;;;28.29;34.95;102188.06;5059196;28;20448;-70
2022/06/10 10:59:33;;;;;;;7.18;2.35;;;;;;;27.82;35.00;102201.28;5059310;28;20033;-70
2022/06/10 11:02:00;;;;;;;5.47;2.00;;;;;;;27.11;35.59;102198.53;5058453;28;20469;-71
2022/06/10 11:04:30;;;;;;;5.22;2.00;;;;;;;26.77;36.17;102186.03;5059590;28;20052;-70
2022/06/10 11:07:10;;;;;;;7.05;2.15;;;;;;;26.97;37.68;102189.53;5059813;28;20037;-70
2022/06/10 11:09:46;;;;;;;7.93;2.20;;;;;;;26.86;36.52;102184.78;5054702;28;20056;-70
2022/06/10 11:12:27;;;;;;;4.88;1.58;;;;;;;27.40;35.82;102186.19;5055706;28;20036;-70
2022/06/10 11:15:06;;;;;;;6.85;1.77;;;;;;;27.37;36.80;102189.38;5056883;28;20021;-70
2022/06/10 11:17:36;;;;;;;5.43;1.70;;;;;;;27.22;36.15;102188.81;5056032;28;20029;-71
2022/06/10 11:20:29;;;;;;;6.15;1.77;;;;;;;27.43;36.01;102196.69;5056739;28;20067;-71
2022/06/10 11:23:24;;;;;;;5.95;1.80;;;;;;;27.50;35.67;102191.19;5055719;28;20056;-71
2022/06/10 11:26:03;;;;;;;4.72;2.00;;;;;;;27.27;35.55;102206.22;5055500;28;20469;-70
2022/06/10 11:28:37;;;;;;;4.97;1.75;;;;;;;27.57;35.32;102192.00;5055589;28;20033;-70
2022/06/10 11:31:03;;;;;;;4.70;1.60;;;;;;;26.90;37.84;102188.72;5056681;28;20029;-72
2022/06/10 11:33:38;;;;;;;4.00;1.80;;;;;;;26.88;36.77;102188.94;5055724;28;20029;-70
2022/06/10 11:36:13;;;;;;;8.60;1.80;;;;;;;28.05;36.80;102198.81;5055585;28;20033;-71
2022/06/10 11:38:51;;;;;;;6.57;2.10;;;;;;;27.37;36.54;102196.75;5055528;28;20067;-70
2022/06/10 11:41:30;;;;;;;5.60;1.83;;;;;;;26.60;38.31;102197.38;5055480;28;20025;-71
2022/06/10 11:44:20;;;;;;;4.95;1.90;;;;;;;25.91;40.71;102188.63;5055985;28;20035;-70
2022/06/10 11:47:08;;;;;;;5.25;1.92;;;;;;;25.52;41.90;102190.25;5055782;28;20027;-70
2022/06/10 11:49:40;;;;;;;4.35;1.60;;;;;;;25.01;43.48;102194.25;5052289;28;20048;-70
2022/06/10 11:52:28;;;;;;;4.13;1.90;;;;;;;25.07;43.16;102187.16;5055402;28;20056;-70
2022/06/10 11:55:14;;;;;;;4.70;2.00;;;;;;;26.21;41.18;102193.69;5053994;28;20041;-69
2022/06/10 12:00:35;;;;;;;3.25;1.80;;;;;;;28.16;41.15;102180.81;5056024;28;20043;-70